createdAt,value
2018-01-31T01:52:20.386Z,1.50
2018-01-31T01:52:52.101Z,2.59
2018-01-31T01:55:20.424Z,2.51
2018-01-31T01:57:48.753Z,2.67
2018-01-31T02:00:17.820Z,2.83
2018-01-31T02:02:46.131Z,2.85
2018-01-31T02:05:15.198Z,2.74
2018-01-31T02:07:43.515Z,2.82
2018-01-31T02:10:12.593Z,3.00
2018-01-31T02:12:40.888Z,3.01
2018-01-31T02:15:09.970Z,2.45
2018-01-31T02:17:38.281Z,2.61
2018-01-31T02:20:06.590Z,2.85
2018-01-31T02:22:34.921Z,2.99
2018-01-31T02:25:03.219Z,3.04
2018-01-31T02:27:31.515Z,3.07
2018-01-31T02:29:59.824Z,3.17
2018-01-31T02:32:28.893Z,3.06
2018-01-31T02:34:58.420Z,3.03
2018-01-31T02:37:26.716Z,3.05
2018-01-31T02:40:01.314Z,3.38
2018-01-31T02:42:29.604Z,3.54
2018-01-31T02:44:59.089Z,3.65
2018-01-31T02:47:27.396Z,3.77
2018-01-31T02:49:56.473Z,3.90
2018-01-31T02:52:24.781Z,3.95
2018-01-31T02:54:53.084Z,4.00
2018-01-31T02:57:21.389Z,3.81
2018-01-31T02:59:49.697Z,3.90
2018-01-31T03:02:17.993Z,4.02
2018-01-31T03:04:46.641Z,3.92
2018-01-31T03:07:14.949Z,3.79
2018-01-31T03:09:43.268Z,3.90
2018-01-31T03:12:11.583Z,3.65
2018-01-31T03:14:39.886Z,3.57
2018-01-31T03:17:08.188Z,3.57
2018-01-31T03:19:36.475Z,3.61
2018-01-31T03:22:04.796Z,3.86
2018-01-31T03:24:33.084Z,4.06
2018-01-31T03:27:01.428Z,4.23
2018-01-31T03:29:29.730Z,4.21
2018-01-31T03:31:58.035Z,4.29
2018-01-31T03:34:26.335Z,4.30
2018-01-31T03:36:54.641Z,4.44
2018-01-31T03:39:22.939Z,4.41
2018-01-31T03:41:52.276Z,4.51
2018-01-31T03:44:20.574Z,4.60
2018-01-31T03:46:48.888Z,4.65
2018-01-31T03:49:17.230Z,4.40
2018-01-31T03:51:45.542Z,4.12
2018-01-31T03:54:14.603Z,4.11
2018-01-31T03:56:42.925Z,4.27
2018-01-31T03:59:11.217Z,4.31
2018-01-31T04:01:39.515Z,4.44
2018-01-31T04:04:07.834Z,4.49
2018-01-31T04:06:36.142Z,4.43
2018-01-31T04:09:04.485Z,4.47
2018-01-31T04:11:33.586Z,4.62
2018-01-31T04:14:01.903Z,4.71
2018-01-31T04:16:30.212Z,4.72
2018-01-31T04:18:58.511Z,4.82
2018-01-31T04:21:26.866Z,4.74
2018-01-31T04:23:55.193Z,4.84
2018-01-31T04:26:23.510Z,4.78
2018-01-31T04:28:51.808Z,4.92
2018-01-31T04:31:20.111Z,4.89
2018-01-31T04:33:48.409Z,5.04
2018-01-31T04:36:16.714Z,5.12
2018-01-31T04:38:45.027Z,5.22
2018-01-31T04:41:14.109Z,5.31
2018-01-31T04:43:42.425Z,5.11
2018-01-31T04:46:10.732Z,5.25
2018-01-31T04:48:39.046Z,5.32
2018-01-31T04:51:07.351Z,5.43
2018-01-31T04:53:35.667Z,5.43
2018-01-31T04:56:03.985Z,5.56
2018-01-31T04:58:33.066Z,5.64
2018-01-31T05:01:01.367Z,5.72
2018-01-31T05:03:30.459Z,5.72
2018-01-31T05:05:58.786Z,5.60
2018-01-31T05:08:27.093Z,5.80
2018-01-31T05:10:55.410Z,5.90
2018-01-31T05:13:23.723Z,5.98
2018-01-31T05:15:52.046Z,6.04
2018-01-31T05:18:20.348Z,6.10
2018-01-31T05:20:48.673Z,6.07
2018-01-31T05:23:16.975Z,6.11
2018-01-31T05:25:45.306Z,6.20
2018-01-31T05:28:13.606Z,6.27
2018-01-31T05:30:41.937Z,6.31
2018-01-31T05:33:10.257Z,6.38
2018-01-31T05:35:38.573Z,6.43
2018-01-31T05:38:06.872Z,6.41
2018-01-31T05:40:35.190Z,6.41
2018-01-31T05:43:03.492Z,6.52
2018-01-31T05:45:32.551Z,6.62
2018-01-31T05:48:00.880Z,6.44
2018-01-31T05:50:29.207Z,6.48
2018-01-31T05:52:57.517Z,6.60
2018-01-31T05:55:25.831Z,6.62
2018-01-31T05:57:54.132Z,6.57
2018-01-31T06:00:22.439Z,6.56
2018-01-31T06:02:50.757Z,6.73
2018-01-31T06:05:19.066Z,6.68
2018-01-31T06:07:47.377Z,6.83
2018-01-31T06:10:15.681Z,6.87
2018-01-31T06:12:43.993Z,6.89
2018-01-31T06:15:12.294Z,7.01
2018-01-31T06:17:40.596Z,7.12
2018-01-31T06:20:08.992Z,7.14
2018-01-31T06:22:37.298Z,7.25
2018-01-31T06:25:05.609Z,7.28
2018-01-31T06:27:33.930Z,7.33
2018-01-31T06:30:03.079Z,7.32
2018-01-31T06:32:31.402Z,7.26
2018-01-31T06:34:59.715Z,7.37
2018-01-31T06:37:28.028Z,7.40
2018-01-31T06:39:56.385Z,7.41
2018-01-31T06:42:24.661Z,7.40
2018-01-31T06:44:52.985Z,7.46
2018-01-31T06:47:21.287Z,7.66
2018-01-31T06:49:49.595Z,7.59
2018-01-31T06:52:17.903Z,7.53
2018-01-31T06:54:46.221Z,7.58
2018-01-31T06:57:14.528Z,7.56
2018-01-31T06:59:42.853Z,7.70
2018-01-31T07:02:11.152Z,7.66
2018-01-31T07:04:39.466Z,7.60
2018-01-31T07:07:08.550Z,7.62
2018-01-31T07:09:36.862Z,7.68
2018-01-31T07:12:05.184Z,7.83
2018-01-31T07:14:34.885Z,7.89
2018-01-31T07:17:03.193Z,7.90
2018-01-31T07:19:31.503Z,7.97
2018-01-31T07:21:59.818Z,8.04
2018-01-31T07:24:28.155Z,8.01
2018-01-31T07:26:56.459Z,8.04
2018-01-31T07:29:25.580Z,7.90
2018-01-31T07:31:54.827Z,8.04
2018-01-31T07:34:23.554Z,8.05
2018-01-31T07:36:51.809Z,8.08
2018-01-31T07:39:20.074Z,8.18
2018-01-31T07:41:48.751Z,8.16
2018-01-31T07:44:17.021Z,8.09
2018-01-31T07:46:45.289Z,8.08
2018-01-31T07:49:13.613Z,8.09
2018-01-31T07:51:42.594Z,8.14
2018-01-31T07:54:10.855Z,8.20
2018-01-31T07:56:40.214Z,8.23
2018-01-31T07:59:09.854Z,8.19
2018-01-31T08:01:38.121Z,8.15
2018-01-31T08:04:06.391Z,8.16
2018-01-31T08:06:34.653Z,8.28
2018-01-31T08:09:04.098Z,8.19
2018-01-31T08:11:32.382Z,8.25
2018-01-31T08:14:00.642Z,8.32
2018-01-31T08:16:28.924Z,8.40
2018-01-31T08:18:57.185Z,8.46
2018-01-31T08:21:26.742Z,8.46
2018-01-31T08:23:54.985Z,8.40
2018-01-31T08:26:23.258Z,8.49
2018-01-31T08:28:51.522Z,8.59
2018-01-31T08:31:19.787Z,8.55
2018-01-31T08:33:48.056Z,8.61
2018-01-31T08:36:17.086Z,8.63
2018-01-31T08:38:45.368Z,8.56
2018-01-31T08:41:13.626Z,8.46
2018-01-31T08:43:41.882Z,8.41
2018-01-31T08:46:10.161Z,8.43
2018-01-31T08:48:38.419Z,8.52
2018-01-31T08:51:06.685Z,8.48
2018-01-31T08:53:34.945Z,8.58
2018-01-31T08:56:03.213Z,8.50
2018-01-31T08:58:31.482Z,8.59
2018-01-31T09:00:59.750Z,8.64
2018-01-31T09:03:28.013Z,8.60
2018-01-31T09:05:56.289Z,8.67
2018-01-31T09:08:25.368Z,8.71
2018-01-31T09:10:53.643Z,8.80
2018-01-31T09:13:21.905Z,8.84
2018-01-31T09:15:50.175Z,8.77
2018-01-31T09:18:19.212Z,8.75
2018-01-31T09:20:47.481Z,8.75
2018-01-31T09:23:15.753Z,8.90
2018-01-31T09:25:44.028Z,9.00
2018-01-31T09:28:12.290Z,8.99
2018-01-31T09:30:40.558Z,8.94
2018-01-31T09:33:08.843Z,9.00
2018-01-31T09:35:37.110Z,8.93
2018-01-31T09:38:05.373Z,8.99
2018-01-31T09:40:33.650Z,8.89
2018-01-31T09:43:01.934Z,8.91
2018-01-31T09:45:30.202Z,8.80
2018-01-31T09:47:58.462Z,8.83
2018-01-31T09:50:27.798Z,8.78
2018-01-31T09:52:58.282Z,8.79
2018-01-31T09:55:28.169Z,8.79
2018-01-31T09:57:57.325Z,8.87
2018-01-31T10:00:25.921Z,8.85
2018-01-31T10:02:54.185Z,8.88
2018-01-31T10:05:22.449Z,8.80
2018-01-31T10:07:50.714Z,8.65
2018-01-31T10:10:18.979Z,8.63
2018-01-31T10:12:47.245Z,8.65
2018-01-31T10:15:15.509Z,8.68
2018-01-31T10:17:43.766Z,8.77
2018-01-31T10:20:12.043Z,8.70
2018-01-31T10:22:40.311Z,8.69
2018-01-31T10:25:08.582Z,8.69
2018-01-31T10:27:36.845Z,8.66
2018-01-31T10:30:05.878Z,8.71
2018-01-31T10:32:34.150Z,8.63
2018-01-31T10:35:02.410Z,8.74
2018-01-31T10:37:31.614Z,8.84
2018-01-31T10:39:59.898Z,8.89
2018-01-31T10:42:28.642Z,8.75
2018-01-31T10:44:57.671Z,8.79
2018-01-31T10:47:26.671Z,8.80
2018-01-31T10:49:54.934Z,8.78
2018-01-31T10:52:23.218Z,8.85
2018-01-31T10:57:28.911Z,8.79
2018-01-31T10:59:48.017Z,8.76
2018-01-31T11:02:16.286Z,8.90
2018-01-31T11:04:45.318Z,8.72
2018-01-31T11:07:13.582Z,8.75
2018-01-31T11:09:41.845Z,8.72
2018-01-31T11:12:10.884Z,8.79
2018-01-31T11:14:39.141Z,8.63
2018-01-31T11:17:07.416Z,8.59
2018-01-31T11:19:35.677Z,8.72
2018-01-31T11:22:03.955Z,8.66
2018-01-31T11:24:32.213Z,8.69
2018-01-31T11:27:00.478Z,8.75
2018-01-31T11:29:29.718Z,8.69
2018-01-31T11:31:58.010Z,8.80
2018-01-31T11:34:26.270Z,8.86
2018-01-31T11:36:54.529Z,9.01
2018-01-31T11:39:22.790Z,8.95
2018-01-31T11:41:51.059Z,8.85
2018-01-31T11:44:19.313Z,8.83
2018-01-31T11:46:47.574Z,8.91
2018-01-31T11:49:15.837Z,8.82
2018-01-31T11:51:44.095Z,8.80
2018-01-31T11:54:12.358Z,8.76
2018-01-31T11:56:40.643Z,8.76
2018-01-31T11:59:08.906Z,8.74
2018-01-31T12:01:37.181Z,8.66
2018-01-31T12:04:05.441Z,8.82
2018-01-31T12:06:34.469Z,8.83
2018-01-31T12:09:03.154Z,8.60
2018-01-31T12:11:31.433Z,8.66
2018-01-31T12:14:22.659Z,8.63
2018-01-31T12:17:08.717Z,8.70
2018-01-31T12:23:25.769Z,8.64
2018-01-31T12:26:11.610Z,8.59
2018-01-31T12:32:21.443Z,8.56
2018-01-31T12:35:07.286Z,8.42
2018-01-31T12:37:53.266Z,8.60
2018-01-31T12:40:20.733Z,8.61
2018-01-31T12:42:48.973Z,8.56
2018-01-31T12:45:16.463Z,8.45
2018-01-31T12:51:16.734Z,8.53
2018-01-31T12:57:19.729Z,8.49
2018-01-31T13:00:06.285Z,8.39
2018-01-31T13:06:16.173Z,8.35
2018-01-31T13:09:02.289Z,8.35
2018-01-31T13:11:48.118Z,8.26
2018-01-31T13:14:34.173Z,8.34
2018-01-31T13:17:20.017Z,8.31
2018-01-31T13:20:06.163Z,8.23
2018-01-31T13:22:52.671Z,8.18
2018-01-31T13:25:39.386Z,8.11
2018-01-31T13:32:07.135Z,8.20
2018-01-31T13:34:53.008Z,8.15
2018-01-31T13:37:44.646Z,8.22
2018-01-31T13:40:35.163Z,8.13
2018-01-31T13:43:21.102Z,8.29
2018-01-31T13:46:07.001Z,8.37
2018-01-31T13:48:52.882Z,8.43
2018-01-31T13:51:49.909Z,8.40
2018-01-31T13:54:35.882Z,8.38
2018-01-31T13:57:21.793Z,8.55
2018-01-31T14:00:07.686Z,8.50
2018-01-31T14:02:53.488Z,8.53
2018-01-31T14:05:40.405Z,8.51
2018-01-31T14:08:26.532Z,8.46
2018-01-31T14:11:12.629Z,8.52
2018-01-31T14:13:58.625Z,8.40
2018-01-31T14:16:44.526Z,8.49
2018-01-31T14:19:30.614Z,8.49
2018-01-31T14:22:16.513Z,8.52
2018-01-31T14:25:03.817Z,8.50
2018-01-31T14:27:49.693Z,8.51
2018-01-31T14:30:35.546Z,8.31
2018-01-31T14:36:14.330Z,8.30
2018-01-31T14:38:42.799Z,8.40
2018-01-31T14:41:10.270Z,8.31
2018-01-31T14:43:37.761Z,8.38
2018-01-31T14:46:05.247Z,8.45
2018-01-31T14:48:32.714Z,8.26
2018-01-31T14:51:00.194Z,8.43
2018-01-31T14:53:28.154Z,8.38
2018-01-31T14:55:55.676Z,8.44
2018-01-31T14:58:23.102Z,8.37
2018-01-31T15:00:50.582Z,8.37
2018-01-31T15:03:18.060Z,8.20
2018-01-31T15:05:45.543Z,8.32
2018-01-31T15:08:13.018Z,8.25
2018-01-31T15:10:40.495Z,8.24
2018-01-31T15:13:08.735Z,8.26
2018-01-31T15:15:36.221Z,8.30
2018-01-31T15:18:03.706Z,8.31
2018-01-31T15:20:31.183Z,8.22
2018-01-31T15:22:58.657Z,8.36
2018-01-31T15:25:26.138Z,8.13
2018-01-31T15:27:53.609Z,8.17
2018-01-31T15:30:21.869Z,8.07
2018-01-31T15:32:49.361Z,8.12
2018-01-31T15:35:16.843Z,8.16
2018-01-31T15:37:44.313Z,8.12
2018-01-31T15:40:11.797Z,8.13
2018-01-31T15:42:39.269Z,8.15
2018-01-31T15:45:06.786Z,8.07
2018-01-31T15:47:34.253Z,8.14
2018-01-31T15:50:01.760Z,8.08
2018-01-31T15:52:29.243Z,8.01
2018-01-31T15:54:58.438Z,8.11
2018-01-31T15:57:25.920Z,8.22
2018-01-31T15:59:53.385Z,8.23
2018-01-31T16:02:20.874Z,8.19
2018-01-31T16:04:48.350Z,8.16
2018-01-31T16:07:15.832Z,8.05
2018-01-31T16:09:43.306Z,8.01
2018-01-31T16:12:10.781Z,8.00
2018-01-31T16:14:38.257Z,7.86
2018-01-31T16:17:06.528Z,7.92
2018-01-31T16:19:52.394Z,7.97
2018-01-31T16:22:20.661Z,7.93
2018-01-31T16:24:48.925Z,7.96
2018-01-31T16:27:23.993Z,7.91
2018-01-31T16:33:21.934Z,8.06
2018-01-31T16:35:50.205Z,8.10
2018-01-31T16:38:18.483Z,7.98
2018-01-31T16:40:46.754Z,8.03
2018-01-31T16:43:15.021Z,8.02
2018-01-31T16:45:44.057Z,7.99
2018-01-31T16:48:12.322Z,7.98
2018-01-31T16:50:40.611Z,7.81
2018-01-31T16:53:08.870Z,7.61
2018-01-31T16:55:37.152Z,7.75
2018-01-31T16:58:05.418Z,7.55
2018-01-31T17:00:33.689Z,7.68
2018-01-31T17:03:01.954Z,7.69
2018-01-31T17:05:30.225Z,7.61
2018-01-31T17:07:59.278Z,7.51
2018-01-31T17:10:27.577Z,7.46
2018-01-31T17:12:55.949Z,7.48
2018-01-31T17:15:24.327Z,7.55
2018-01-31T17:17:52.609Z,7.45
2018-01-31T17:20:21.623Z,7.08
2018-01-31T17:22:50.725Z,6.72
2018-01-31T17:25:19.002Z,6.60
2018-01-31T17:27:47.298Z,6.57
2018-01-31T17:30:15.560Z,6.45
2018-01-31T17:32:43.831Z,6.44
2018-01-31T17:35:12.114Z,6.48
2018-01-31T17:37:40.366Z,6.30
2018-01-31T17:40:08.638Z,6.15
2018-01-31T17:42:37.682Z,6.00
2018-01-31T17:45:06.078Z,6.01
2018-01-31T17:47:34.412Z,6.02
2018-01-31T17:50:02.710Z,6.04
2018-01-31T17:52:31.900Z,5.93
2018-01-31T17:55:02.196Z,6.03
2018-01-31T17:57:32.245Z,6.08
2018-01-31T18:00:03.013Z,5.92
2018-01-31T18:02:32.312Z,6.00
2018-01-31T18:05:03.576Z,6.13
2018-01-31T18:07:32.691Z,6.15
2018-01-31T18:10:02.365Z,6.09
2018-01-31T18:12:33.330Z,6.01
2018-01-31T18:15:03.059Z,6.02
2018-01-31T18:17:33.562Z,6.05
2018-01-31T18:20:03.196Z,6.06
2018-01-31T18:22:33.254Z,6.07
2018-01-31T18:25:03.657Z,6.01
2018-01-31T18:27:35.840Z,6.09
2018-01-31T18:30:07.425Z,6.14
2018-01-31T18:32:37.153Z,6.14
2018-01-31T18:35:08.663Z,6.14
2018-01-31T18:37:38.480Z,6.07
2018-01-31T18:40:08.162Z,6.08
2018-01-31T18:42:37.904Z,6.13
2018-01-31T18:45:07.544Z,6.19
2018-01-31T18:47:37.286Z,6.20
2018-01-31T18:50:07.016Z,6.21
2018-01-31T18:52:36.759Z,6.23
2018-01-31T18:55:06.494Z,6.18
2018-01-31T18:57:36.365Z,6.22
2018-01-31T19:00:06.150Z,6.09
2018-01-31T19:02:37.230Z,5.89
2018-01-31T19:05:07.290Z,5.86
2018-01-31T19:07:37.026Z,5.87
2018-01-31T19:10:07.021Z,5.77
2018-01-31T19:12:36.804Z,5.86
2018-01-31T19:15:06.615Z,5.64
2018-01-31T19:17:36.415Z,5.72
2018-01-31T19:20:06.409Z,5.65
2018-01-31T19:22:36.177Z,5.38
2018-01-31T19:25:06.223Z,5.20
2018-01-31T19:27:36.012Z,5.17
2018-01-31T19:30:06.032Z,5.18
2018-01-31T19:32:36.594Z,5.08
2018-01-31T19:35:07.144Z,5.21
2018-01-31T19:37:36.960Z,5.35
2018-01-31T19:40:06.829Z,5.43
2018-01-31T19:58:41.744Z,5.13
2018-01-31T20:01:11.628Z,5.30
2018-01-31T20:03:41.465Z,5.32
2018-01-31T20:06:12.132Z,5.16
2018-01-31T20:08:41.876Z,5.14
2018-01-31T20:11:11.659Z,5.19
2018-01-31T20:13:41.460Z,5.31
2018-01-31T20:16:11.259Z,5.19
2018-01-31T20:18:42.001Z,5.27
2018-01-31T20:21:12.388Z,5.27
2018-01-31T20:23:42.158Z,5.26
2018-01-31T20:26:13.119Z,5.29
2018-01-31T20:28:43.596Z,5.49
2018-01-31T20:31:15.006Z,5.47
2018-01-31T20:33:45.483Z,5.60
2018-01-31T20:36:17.047Z,5.67
2018-01-31T20:38:46.889Z,5.63
2018-01-31T20:41:17.117Z,5.71
2018-01-31T20:43:46.872Z,5.73
2018-01-31T20:46:16.782Z,5.70
2018-01-31T20:48:46.861Z,5.75
2018-01-31T20:51:16.613Z,5.56
2018-01-31T20:53:46.472Z,5.56
2018-01-31T20:56:16.426Z,5.63
2018-01-31T20:58:46.481Z,5.64
2018-01-31T21:01:17.733Z,5.58
2018-01-31T21:03:47.516Z,5.62
2018-01-31T21:22:22.318Z,5.54
2018-01-31T21:24:52.040Z,5.60
2018-01-31T21:27:21.836Z,5.51
2018-01-31T21:29:51.776Z,5.63
2018-01-31T21:32:21.990Z,5.58
2018-01-31T21:34:51.834Z,5.67
2018-01-31T21:37:21.710Z,5.70
2018-01-31T21:39:51.521Z,5.76
2018-01-31T21:55:16.312Z,5.40
2018-01-31T21:57:57.845Z,5.43
2018-01-31T22:00:27.469Z,5.56
2018-01-31T22:02:57.171Z,5.75
2018-01-31T22:05:26.751Z,5.85
2018-01-31T22:07:56.979Z,5.75
2018-01-31T22:10:26.616Z,5.75
2018-01-31T22:12:55.171Z,5.60
2018-01-31T22:15:24.022Z,5.61
2018-01-31T22:17:52.358Z,5.66
2018-01-31T22:20:20.644Z,5.68
2018-01-31T22:22:48.906Z,5.70
2018-01-31T22:25:17.165Z,5.91
2018-01-31T22:27:45.562Z,5.84
2018-01-31T22:30:13.833Z,5.81
2018-01-31T22:32:42.098Z,5.72
2018-01-31T22:35:10.435Z,5.67
2018-01-31T22:37:38.705Z,5.48
2018-01-31T22:40:06.987Z,4.89
2018-01-31T22:42:36.042Z,4.15
2018-01-31T22:45:05.046Z,4.07
2018-01-31T22:47:33.319Z,4.35
2018-01-31T22:50:01.590Z,4.13
2018-01-31T22:52:29.874Z,4.36
2018-01-31T22:54:58.137Z,4.41
2018-01-31T22:57:26.405Z,4.47
2018-01-31T22:59:54.668Z,4.37
2018-01-31T23:02:22.946Z,4.46
2018-01-31T23:04:51.211Z,4.59
2018-01-31T23:07:19.477Z,4.60
2018-01-31T23:09:47.746Z,4.59
2018-01-31T23:12:21.471Z,4.67
2018-01-31T23:14:52.666Z,4.67
2018-01-31T23:17:26.482Z,4.67
2018-01-31T23:19:54.737Z,4.66
2018-01-31T23:22:23.006Z,4.64
2018-01-31T23:24:51.272Z,4.55
2018-01-31T23:27:19.546Z,4.18
2018-01-31T23:29:47.806Z,4.22
2018-01-31T23:32:16.086Z,3.97
2018-01-31T23:34:44.338Z,3.91
2018-01-31T23:37:12.606Z,3.92
2018-01-31T23:39:41.638Z,3.87
2018-01-31T23:42:09.919Z,3.90
2018-01-31T23:44:38.179Z,3.96
2018-01-31T23:47:06.450Z,3.97
2018-01-31T23:49:34.710Z,3.91
2018-01-31T23:52:02.990Z,4.00
2018-01-31T23:54:31.262Z,4.00
2018-01-31T23:57:00.325Z,4.04
2018-01-31T23:59:28.598Z,4.00
